Karvansaray, Azerbaijan

8:39 AM +04 on December 03, 2016 (GMT +0400)
Nakchivan | | Change Station

Elev 2864 ft 39.19 °N, 45.46 °E | Updated 9 minutes ago

Scattered Clouds
Scattered Clouds
39 °F
Feels Like 33 °F
N
9
Wind Variable Wind from East

Today
High -- | Low -- °F
--% Chance of Precip.
Yesterday
High -- | Low -- °F
Precip. -- in
Pressure 29.92 in
Visibility 6.2 miles
Clouds Scattered Clouds 10000 ft
Windchill 33 °F
Dew Point 28 °F
Humidity 65%
Rainfall 0.00 in
Snow Depth Not available.
8:00 AM 5:33 PM
Waxing Crescent, 12% visible
METAR UBBN 030430Z 08008KT 9999 SCT100 04/M02 Q1013 R14R/CLRD// NOSIG RMK MT OP QFE685
Pressure 29.92 in
Visibility 6.2 miles
Clouds Scattered Clouds 10000 ft
Windchill 33 °F
Dew Point 28 °F
Humidity 65%
Rainfall 0.00 in
Snow Depth Not available.
8:00 AM 5:33 PM
Waxing Crescent, 12% visible
METAR UBBN 030430Z 08008KT 9999 SCT100 04/M02 Q1013 R14R/CLRD// NOSIG RMK MT OP QFE685

10-Day Weather Forecast

No radar image for this location.
×

Almanac

Astronomy

Dec. 03, 2016 Rise Set
Actual Time
Civil Twilight
Nautical Twilight
Astronomical Twilight
Moon
Length of Visible Light
Length of Day
Tomorrow will be .
, % of the Moon is Illuminated

Today's Extremes

Country Highs Country Lows

Community

WunderPhotos

Upload Photos

1,955,411 photos uploaded!

WunderBlog® & News

Nearby

Air Quality

  Air Quality AQ Index Pollutant
Not available.

Snow Depth

Station Depth Elevation

Earthquake Activity

City Distance Mag. Time & Date
Minimum magnitude displayed is 2.5.

Coastal Water Temperatures

Place Temperature

Stations

Nearby Weather Stations

Station Location Temp. Windchill Dew Point Humidity Wind Precip. Elev Updated Type